createdAt,value
2018-11-27T00:00:33.829Z,101063.41
2018-11-27T00:03:05.177Z,101062.98
2018-11-27T00:05:34.573Z,101064.02
2018-11-27T00:08:03.203Z,101060.37
2018-11-27T00:10:33.881Z,101062.56
2018-11-27T00:13:02.378Z,101063.73
2018-11-27T00:15:31.088Z,101069.56
2018-11-27T00:18:00.552Z,101066.95
2018-11-27T00:20:29.108Z,101068.59
2018-11-27T00:22:57.703Z,101070.92
2018-11-27T00:25:26.370Z,101069.34
2018-11-27T00:27:54.959Z,101074.00
2018-11-27T00:30:23.592Z,101068.45
2018-11-27T00:32:52.136Z,101072.64
2018-11-27T00:35:21.072Z,101071.95
2018-11-27T00:37:49.664Z,101070.55
2018-11-27T00:40:22.765Z,101068.68
2018-11-27T00:42:51.310Z,101067.19
2018-11-27T00:45:20.697Z,101070.31
2018-11-27T00:47:49.976Z,101065.64
2018-11-27T00:50:22.234Z,101070.64
2018-11-27T00:52:50.784Z,101068.17
2018-11-27T00:55:20.036Z,101068.35
2018-11-27T00:57:49.791Z,101072.27
2018-11-27T01:00:19.427Z,101067.66
2018-11-27T01:02:50.935Z,101069.99
2018-11-27T01:05:20.865Z,101069.66
2018-11-27T01:07:49.547Z,101061.08
2018-11-27T01:10:20.006Z,101069.05
2018-11-27T01:12:48.524Z,101069.33
2018-11-27T01:15:17.247Z,101075.86
2018-11-27T01:17:46.977Z,101067.05
2018-11-27T01:20:19.495Z,101078.06
2018-11-27T01:22:48.100Z,101070.13
2018-11-27T01:25:16.695Z,101077.92
2018-11-27T01:27:45.250Z,101075.27
2018-11-27T01:30:16.878Z,101069.81
2018-11-27T01:32:45.524Z,101077.03
2018-11-27T01:35:16.780Z,101080.34
2018-11-27T01:37:45.531Z,101077.03
2018-11-27T01:40:19.848Z,101085.30
2018-11-27T01:42:49.414Z,101081.37
2018-11-27T01:45:19.057Z,101076.20
2018-11-27T01:47:47.761Z,101077.73
2018-11-27T01:50:17.477Z,101075.88
2018-11-27T01:52:46.077Z,101086.05
2018-11-27T01:55:16.400Z,101083.89
2018-11-27T01:57:45.011Z,101089.07
2018-11-27T02:00:22.032Z,101087.63
2018-11-27T02:02:50.821Z,101089.20
2018-11-27T02:05:19.398Z,101079.36
2018-11-27T02:07:47.991Z,101084.97
2018-11-27T02:10:16.516Z,101079.92
2018-11-27T02:12:48.854Z,101083.28
2018-11-27T02:15:23.189Z,101086.55
2018-11-27T02:17:51.731Z,101089.16
2018-11-27T02:20:20.312Z,101085.23
2018-11-27T02:22:48.924Z,101082.54
2018-11-27T02:25:20.408Z,101084.92
2018-11-27T02:27:48.961Z,101084.27
2018-11-27T02:30:18.306Z,101085.71
2018-11-27T02:32:46.846Z,101087.48
2018-11-27T02:35:16.809Z,101088.61
2018-11-27T02:37:45.526Z,101094.16
2018-11-27T02:40:15.900Z,101091.41
2018-11-27T02:42:44.439Z,101099.02
2018-11-27T02:45:13.897Z,101095.92
2018-11-27T02:47:42.785Z,101096.88
2018-11-27T02:50:12.328Z,101104.38
2018-11-27T02:52:40.877Z,101104.80
2018-11-27T02:55:10.764Z,101111.66
2018-11-27T02:57:39.369Z,101109.31
2018-11-27T03:00:10.643Z,101113.02
2018-11-27T03:02:39.501Z,101116.94
2018-11-27T03:05:15.051Z,101117.73
2018-11-27T03:08:46.163Z,101115.30
2018-11-27T03:11:14.720Z,101111.14
2018-11-27T03:13:43.266Z,101109.36
2018-11-27T03:16:11.749Z,101112.03
2018-11-27T03:18:40.297Z,101114.05
2018-11-27T03:21:08.963Z,101113.75
2018-11-27T03:23:37.521Z,101110.48
2018-11-27T03:26:06.450Z,101113.75
2018-11-27T03:28:34.992Z,101109.88
2018-11-27T03:31:03.570Z,101114.91
2018-11-27T03:33:32.112Z,101117.15
2018-11-27T03:36:00.658Z,101111.80
2018-11-27T03:38:29.259Z,101110.06
2018-11-27T03:40:57.898Z,101114.54
2018-11-27T03:43:26.480Z,101120.30
2018-11-27T03:45:55.074Z,101119.62
2018-11-27T03:48:23.616Z,101119.02
2018-11-27T03:50:52.168Z,101124.19
2018-11-27T03:53:20.746Z,101125.13
2018-11-27T03:55:49.264Z,101119.84
2018-11-27T03:58:17.937Z,101127.91
2018-11-27T04:00:46.466Z,101124.87
2018-11-27T04:03:14.997Z,101125.87
2018-11-27T04:05:43.807Z,101122.45
2018-11-27T04:08:12.374Z,101130.80
2018-11-27T04:10:41.525Z,101132.77
2018-11-27T04:13:10.201Z,101135.84
2018-11-27T04:15:38.807Z,101139.63
2018-11-27T04:18:07.366Z,101138.73
2018-11-27T04:20:35.918Z,101137.06
2018-11-27T04:23:04.481Z,101131.06
2018-11-27T04:25:32.985Z,101135.69
2018-11-27T04:28:01.485Z,101146.70
2018-11-27T04:30:30.065Z,101146.03
2018-11-27T04:32:58.557Z,101138.63
2018-11-27T04:35:27.322Z,101145.53
2018-11-27T04:37:55.841Z,101142.66
2018-11-27T04:40:24.375Z,101149.81
2018-11-27T04:42:53.450Z,101145.70
2018-11-27T04:45:26.191Z,101145.94
2018-11-27T04:47:54.846Z,101151.86
2018-11-27T04:50:23.514Z,101153.27
2018-11-27T04:52:52.001Z,101151.95
2018-11-27T04:55:21.145Z,101159.33
2018-11-27T04:57:50.462Z,101157.78
2018-11-27T05:00:53.067Z,101160.94
2018-11-27T05:03:21.737Z,101161.30
2018-11-27T05:05:50.252Z,101165.02
2018-11-27T05:08:18.818Z,101165.45
2018-11-27T05:10:47.448Z,101171.77
2018-11-27T05:13:16.009Z,101174.83
2018-11-27T05:15:44.597Z,101175.69
2018-11-27T05:18:13.199Z,101184.49
2018-11-27T05:20:41.713Z,101184.52
2018-11-27T05:23:10.296Z,101184.81
2018-11-27T05:25:38.840Z,101189.90
2018-11-27T05:28:07.408Z,101185.98
2018-11-27T05:30:35.884Z,101188.98
2018-11-27T05:33:04.485Z,101193.03
2018-11-27T05:35:33.021Z,101198.46
2018-11-27T05:38:02.427Z,101194.47
2018-11-27T05:40:31.008Z,101193.74
2018-11-27T05:43:01.912Z,101196.11
2018-11-27T05:45:30.661Z,101198.28
2018-11-27T05:47:59.305Z,101192.13
2018-11-27T05:50:27.808Z,101197.72
2018-11-27T05:52:56.340Z,101201.64
2018-11-27T05:55:24.929Z,101204.15
2018-11-27T05:57:54.654Z,101204.48
2018-11-27T06:00:25.251Z,101200.78
2018-11-27T06:02:54.856Z,101206.22
2018-11-27T06:05:24.332Z,101205.23
2018-11-27T06:07:52.941Z,101211.61
2018-11-27T06:10:22.169Z,101215.67
2018-11-27T06:12:50.668Z,101217.39
2018-11-27T06:15:21.188Z,101215.24
2018-11-27T06:17:50.941Z,101216.72
2018-11-27T06:20:20.571Z,101216.81
2018-11-27T06:22:49.211Z,101219.23
2018-11-27T06:25:20.674Z,101234.77
2018-11-27T06:27:50.702Z,101236.94
2018-11-27T06:30:20.210Z,101238.12
2018-11-27T06:32:48.754Z,101238.84
2018-11-27T06:35:27.988Z,101233.18
2018-11-27T06:37:56.532Z,101235.58
2018-11-27T06:40:26.339Z,101237.61
2018-11-27T06:42:54.912Z,101244.00
2018-11-27T06:45:24.238Z,101244.00
2018-11-27T06:47:52.868Z,101252.06
2018-11-27T06:50:22.067Z,101256.56
2018-11-27T06:52:50.708Z,101255.27
2018-11-27T06:55:24.001Z,101253.97
2018-11-27T06:57:52.694Z,101264.02
2018-11-27T07:00:28.722Z,101266.66
2018-11-27T07:02:58.090Z,101264.44
2018-11-27T07:05:26.831Z,101270.91
2018-11-27T07:07:55.366Z,101275.80
2018-11-27T07:10:27.896Z,101272.94
2018-11-27T07:13:03.868Z,101268.35
2018-11-27T07:15:32.663Z,101283.03
2018-11-27T07:18:01.226Z,101285.30
2018-11-27T07:20:29.748Z,101286.34
2018-11-27T07:22:58.265Z,101292.62
2018-11-27T07:25:26.809Z,101301.19
2018-11-27T07:27:55.391Z,101302.83
2018-11-27T07:30:24.732Z,101304.84
2018-11-27T07:32:53.379Z,101302.80
2018-11-27T07:35:21.970Z,101298.33
2018-11-27T07:37:50.765Z,101300.47
2018-11-27T07:40:21.488Z,101299.05
2018-11-27T07:42:51.133Z,101306.27
2018-11-27T07:45:20.702Z,101309.24
2018-11-27T07:47:49.401Z,101308.63
2018-11-27T07:50:18.160Z,101313.50
2018-11-27T07:52:46.739Z,101320.02
2018-11-27T07:55:18.253Z,101323.57
2018-11-27T07:57:46.975Z,101321.91
2018-11-27T08:00:23.428Z,101327.95
2018-11-27T08:02:53.842Z,101336.13
2018-11-27T08:05:23.711Z,101331.75
2018-11-27T08:07:54.217Z,101332.22
2018-11-27T08:10:23.769Z,101336.97
2018-11-27T08:12:53.384Z,101334.94
2018-11-27T08:15:26.131Z,101342.55
2018-11-27T08:17:54.748Z,101340.62
2018-11-27T08:20:31.762Z,101337.06
2018-11-27T08:23:00.465Z,101346.91
2018-11-27T08:25:28.977Z,101344.42
2018-11-27T08:27:57.497Z,101353.31
2018-11-27T08:30:26.047Z,101359.23
2018-11-27T08:32:55.209Z,101359.47
2018-11-27T08:35:24.829Z,101361.25
2018-11-27T08:37:56.269Z,101360.78
2018-11-27T08:40:25.663Z,101359.83
2018-11-27T08:42:54.237Z,101355.20
2018-11-27T08:45:23.667Z,101357.21
2018-11-27T08:47:53.067Z,101355.77
2018-11-27T08:50:25.590Z,101364.43
2018-11-27T08:52:56.991Z,101371.42
2018-11-27T08:55:26.888Z,101369.77
2018-11-27T08:57:55.661Z,101368.56
2018-11-27T09:00:25.149Z,101361.82
2018-11-27T09:02:53.699Z,101363.13
2018-11-27T09:05:22.238Z,101359.46
2018-11-27T09:07:50.841Z,101364.40
2018-11-27T09:10:23.609Z,101362.16
2018-11-27T09:12:52.175Z,101359.92
2018-11-27T09:15:21.721Z,101367.20
2018-11-27T09:17:54.716Z,101369.61
2018-11-27T09:20:23.381Z,101364.26
2018-11-27T09:22:51.884Z,101373.64
2018-11-27T09:25:20.408Z,101384.22
2018-11-27T09:27:48.976Z,101390.83
2018-11-27T09:30:19.554Z,101395.20
2018-11-27T09:32:48.183Z,101392.25
2018-11-27T09:35:16.733Z,101396.37
2018-11-27T09:37:45.386Z,101392.84
2018-11-27T09:40:14.917Z,101384.55
2018-11-27T09:42:43.666Z,101388.34
2018-11-27T09:45:15.971Z,101391.09
2018-11-27T09:47:45.148Z,101394.98
2018-11-27T09:50:14.434Z,101399.02
2018-11-27T09:52:43.015Z,101403.16
2018-11-27T09:55:12.684Z,101403.32
2018-11-27T09:57:41.347Z,101410.04
2018-11-27T10:03:00.246Z,101411.95
2018-11-27T10:05:28.896Z,101414.17
2018-11-27T10:07:57.942Z,101408.57
2018-11-27T10:10:26.999Z,101405.75
2018-11-27T10:12:56.255Z,101396.80
2018-11-27T10:15:26.486Z,101398.63
2018-11-27T10:17:56.560Z,101393.66
2018-11-27T10:20:28.032Z,101390.83
2018-11-27T10:22:56.620Z,101394.75
2018-11-27T10:25:25.277Z,101392.70
2018-11-27T10:27:53.889Z,101392.51
2018-11-27T10:30:24.249Z,101389.46
2018-11-27T10:32:55.657Z,101389.52
2018-11-27T10:35:25.408Z,101380.70
2018-11-27T10:37:53.963Z,101376.45
2018-11-27T10:40:23.296Z,101373.97
2018-11-27T10:42:51.922Z,101373.34
2018-11-27T10:45:21.622Z,101372.48
2018-11-27T10:47:51.945Z,101364.91
2018-11-27T10:50:20.544Z,101365.10
2018-11-27T10:52:51.353Z,101360.67
2018-11-27T10:55:20.849Z,101353.75
2018-11-27T10:57:49.620Z,101357.53
2018-11-27T11:00:31.345Z,101363.07
2018-11-27T11:03:01.421Z,101357.11
2018-11-27T11:05:31.377Z,101343.25
2018-11-27T11:07:59.921Z,101343.47
2018-11-27T11:10:28.573Z,101340.56
2018-11-27T11:12:57.378Z,101335.39
2018-11-27T11:15:27.030Z,101339.17
2018-11-27T11:17:55.544Z,101337.53
2018-11-27T11:20:24.716Z,101344.64
2018-11-27T11:22:53.460Z,101352.69
2018-11-27T11:25:23.305Z,101354.09
2018-11-27T11:27:53.552Z,101346.47
2018-11-27T11:30:22.716Z,101348.03
2018-11-27T11:32:52.372Z,101351.51
2018-11-27T11:35:20.961Z,101352.55
2018-11-27T11:37:50.104Z,101346.56
2018-11-27T11:40:24.244Z,101355.11
2018-11-27T11:42:54.905Z,101346.83
2018-11-27T11:45:24.071Z,101356.78
2018-11-27T11:47:52.654Z,101356.11
2018-11-27T11:50:25.536Z,101360.42
2018-11-27T11:52:58.989Z,101365.33
2018-11-27T11:55:29.668Z,101363.61
2018-11-27T11:57:58.221Z,101365.17
2018-11-27T12:00:44.572Z,101365.17
2018-11-27T12:03:13.940Z,101368.60
2018-11-27T12:05:43.100Z,101371.39
2018-11-27T12:08:12.209Z,101368.34
2018-11-27T12:10:40.826Z,101365.16
2018-11-27T12:13:10.557Z,101368.69
2018-11-27T12:15:40.622Z,101370.62
2018-11-27T12:18:10.298Z,101372.70
2018-11-27T12:20:40.564Z,101364.59
2018-11-27T12:23:10.554Z,101367.09
2018-11-27T12:25:39.820Z,101368.42
2018-11-27T12:28:14.376Z,101364.49
2018-11-27T12:30:38.427Z,101366.70
2018-11-27T12:33:07.498Z,101366.96
2018-11-27T12:35:36.377Z,101367.23
2018-11-27T12:38:04.919Z,101364.50
2018-11-27T12:40:33.624Z,101368.67
2018-11-27T12:43:02.161Z,101362.94
2018-11-27T12:45:32.088Z,101360.59
2018-11-27T12:48:02.089Z,101358.78
2018-11-27T12:50:47.802Z,101350.93
2018-11-27T12:53:17.606Z,101364.55
2018-11-27T12:55:47.754Z,101365.00
2018-11-27T12:58:16.292Z,101365.86
2018-11-27T13:00:51.148Z,101372.22
2018-11-27T13:03:19.684Z,101369.78
2018-11-27T13:05:48.403Z,101372.89
2018-11-27T13:08:20.184Z,101373.50
2018-11-27T13:10:48.699Z,101375.95
2018-11-27T13:13:18.047Z,101383.44
2018-11-27T13:15:46.752Z,101381.83
2018-11-27T13:18:15.305Z,101379.75
2018-11-27T13:20:43.945Z,101383.14
2018-11-27T13:23:12.530Z,101377.47
2018-11-27T13:25:41.192Z,101383.48
2018-11-27T13:28:11.002Z,101379.24
2018-11-27T13:30:41.905Z,101382.81
2018-11-27T13:33:17.139Z,101379.81
2018-11-27T13:35:45.838Z,101379.16
2018-11-27T13:38:14.424Z,101378.19
2018-11-27T13:40:43.004Z,101379.30
2018-11-27T13:43:16.897Z,101370.45
2018-11-27T13:45:45.689Z,101378.95
2018-11-27T13:48:14.247Z,101374.28
2018-11-27T13:50:43.085Z,101388.84
2018-11-27T13:53:11.696Z,101386.96
2018-11-27T13:55:41.137Z,101384.18
2018-11-27T13:58:10.471Z,101387.09
2018-11-27T14:00:38.988Z,101380.96
2018-11-27T14:03:10.809Z,101378.91
2018-11-27T14:05:36.470Z,101382.30
2018-11-27T14:08:06.645Z,101384.31
2018-11-27T14:10:35.391Z,101384.20
2018-11-27T14:13:03.977Z,101379.70
2018-11-27T14:15:32.512Z,101371.09
2018-11-27T14:18:01.154Z,101375.99
2018-11-27T14:20:29.662Z,101385.89
2018-11-27T14:22:58.404Z,101390.91
2018-11-27T14:25:26.976Z,101384.78
2018-11-27T14:27:55.564Z,101386.08
2018-11-27T14:30:25.675Z,101385.93
2018-11-27T14:32:54.657Z,101392.75
2018-11-27T14:35:24.174Z,101394.23
2018-11-27T14:37:54.220Z,101401.35
2018-11-27T14:40:25.976Z,101397.94
2018-11-27T14:42:54.689Z,101408.96
2018-11-27T14:45:26.118Z,101412.63
2018-11-27T14:47:56.005Z,101413.06
2018-11-27T14:50:24.627Z,101423.21
2018-11-27T14:52:53.237Z,101419.42
2018-11-27T14:55:23.406Z,101399.34
2018-11-27T14:57:52.128Z,101402.34
2018-11-27T15:00:21.928Z,101403.67
2018-11-27T15:02:50.456Z,101409.91
2018-11-27T15:05:32.839Z,101415.84
2018-11-27T15:08:01.813Z,101420.88
2018-11-27T15:10:31.156Z,101422.17
2018-11-27T15:12:59.689Z,101422.45
2018-11-27T15:15:29.095Z,101421.73
2018-11-27T15:17:58.420Z,101420.06
2018-11-27T15:20:27.060Z,101423.04
2018-11-27T15:22:55.712Z,101413.78
2018-11-27T15:25:24.296Z,101421.27
2018-11-27T15:27:52.914Z,101420.43
2018-11-27T15:30:24.706Z,101428.39
2018-11-27T15:32:55.803Z,101436.48
2018-11-27T15:35:24.429Z,101437.30
2018-11-27T15:37:53.001Z,101433.77
2018-11-27T15:40:23.279Z,101434.69
2018-11-27T15:42:52.243Z,101425.20
2018-11-27T15:45:22.210Z,101426.36
2018-11-27T15:47:50.977Z,101425.78
2018-11-27T15:50:19.651Z,101422.22
2018-11-27T15:52:48.476Z,101414.38
2018-11-27T15:55:21.370Z,101419.39
2018-11-27T15:57:51.347Z,101424.48
2018-11-27T16:00:20.414Z,101438.34
2018-11-27T16:02:48.983Z,101430.02
2018-11-27T16:05:18.020Z,101417.70
2018-11-27T16:07:46.645Z,101416.25
2018-11-27T16:10:16.380Z,101420.81
2018-11-27T16:12:44.953Z,101425.39
2018-11-27T16:15:15.868Z,101425.77
2018-11-27T16:17:44.563Z,101416.95
2018-11-27T16:20:17.634Z,101422.19
2018-11-27T16:22:47.366Z,101424.46
2018-11-27T16:26:20.594Z,101429.51
2018-11-27T16:28:49.131Z,101425.09
2018-11-27T16:31:17.666Z,101430.76
2018-11-27T16:33:46.201Z,101424.00
2018-11-27T16:36:14.710Z,101425.49
2018-11-27T16:38:43.266Z,101428.33
2018-11-27T16:41:11.762Z,101429.41
2018-11-27T16:43:40.360Z,101434.13
2018-11-27T16:46:08.929Z,101438.51
2018-11-27T16:48:37.509Z,101444.81
2018-11-27T16:51:06.595Z,101444.30
2018-11-27T16:53:36.426Z,101442.86
2018-11-27T16:56:06.784Z,101440.11
2018-11-27T16:58:35.506Z,101438.62
2018-11-27T17:01:08.996Z,101438.02
2018-11-27T17:03:32.746Z,101439.61
2018-11-27T17:06:01.340Z,101442.49
2018-11-27T17:08:30.594Z,101441.22
2018-11-27T17:10:59.132Z,101438.13
2018-11-27T17:13:27.701Z,101435.98
2018-11-27T17:15:56.243Z,101425.54
2018-11-27T17:18:24.788Z,101423.37
2018-11-27T17:20:53.427Z,101428.14
2018-11-27T17:23:22.315Z,101429.44
2018-11-27T17:25:51.532Z,101433.39
2018-11-27T17:28:27.764Z,101433.77
2018-11-27T17:30:58.183Z,101441.92
2018-11-27T17:34:30.556Z,101440.41
2018-11-27T17:36:59.138Z,101445.86
2018-11-27T17:39:27.968Z,101447.75
2018-11-27T17:41:56.562Z,101458.31
2018-11-27T17:44:25.109Z,101458.98
2018-11-27T17:46:53.767Z,101470.78
2018-11-27T17:49:22.486Z,101466.61
2018-11-27T17:51:51.844Z,101471.59
2018-11-27T17:54:21.101Z,101464.97
2018-11-27T17:56:49.845Z,101454.51
2018-11-27T17:59:18.397Z,101457.48
2018-11-27T18:01:47.018Z,101451.67
2018-11-27T18:04:16.341Z,101459.30
2018-11-27T18:06:45.659Z,101451.72
2018-11-27T18:09:14.296Z,101447.88
2018-11-27T18:11:42.813Z,101450.87
2018-11-27T18:14:11.527Z,101441.98
2018-11-27T18:16:40.154Z,101447.80
2018-11-27T18:19:08.705Z,101453.87
2018-11-27T18:21:37.234Z,101446.25
2018-11-27T18:24:06.344Z,101449.83
2018-11-27T18:26:35.430Z,101448.66
2018-11-27T18:29:03.942Z,101442.24
2018-11-27T18:31:32.484Z,101444.36
2018-11-27T18:34:01.013Z,101442.84
2018-11-27T18:40:02.410Z,101437.88
2018-11-27T18:42:30.964Z,101434.18
2018-11-27T18:44:59.568Z,101434.18
2018-11-27T18:47:28.161Z,101438.59
2018-11-27T18:49:56.652Z,101438.81
2018-11-27T18:52:26.608Z,101431.30
2018-11-27T18:54:55.249Z,101428.62
2018-11-27T18:57:23.760Z,101424.95
2018-11-27T18:59:52.300Z,101426.13
2018-11-27T19:02:20.864Z,101429.08
2018-11-27T19:04:49.417Z,101433.71
2018-11-27T19:07:17.901Z,101427.30
2018-11-27T19:09:47.291Z,101429.67
2018-11-27T19:12:16.062Z,101437.63
2018-11-27T19:14:44.614Z,101444.88
2018-11-27T19:17:13.152Z,101437.75
2018-11-27T19:19:41.796Z,101437.75
2018-11-27T19:22:10.365Z,101427.66
2018-11-27T19:24:39.953Z,101428.15
2018-11-27T19:27:10.558Z,101426.47
2018-11-27T19:29:39.186Z,101420.06
2018-11-27T19:32:07.801Z,101430.38
2018-11-27T19:34:36.868Z,101426.25
2018-11-27T19:37:05.722Z,101429.08
2018-11-27T19:39:35.249Z,101430.05
2018-11-27T19:42:04.480Z,101432.19
2018-11-27T19:44:33.161Z,101430.72
2018-11-27T19:47:01.739Z,101421.97
2018-11-27T19:49:30.324Z,101417.38
2018-11-27T19:51:59.919Z,101427.86
2018-11-27T19:54:29.240Z,101426.43
2018-11-27T19:56:57.804Z,101426.80
2018-11-27T19:59:27.093Z,101421.23
2018-11-27T20:01:56.529Z,101431.55
2018-11-27T20:04:25.731Z,101428.69
2018-11-27T20:06:58.401Z,101425.73
2018-11-27T20:09:27.026Z,101417.20
2018-11-27T20:11:55.637Z,101422.27
2018-11-27T20:14:25.349Z,101423.95
2018-11-27T20:16:53.868Z,101424.03
2018-11-27T20:19:22.400Z,101425.30
2018-11-27T20:21:51.221Z,101423.44
2018-11-27T20:24:19.761Z,101426.91
2018-11-27T20:26:48.362Z,101423.17
2018-11-27T20:29:17.820Z,101432.20
2018-11-27T20:31:46.409Z,101437.66
2018-11-27T20:34:15.130Z,101440.05
2018-11-27T20:36:43.969Z,101444.52
2018-11-27T20:39:12.546Z,101433.80
2018-11-27T20:41:41.880Z,101437.06
2018-11-27T20:44:10.643Z,101449.17
2018-11-27T20:46:39.333Z,101442.16
2018-11-27T20:49:07.910Z,101441.88
2018-11-27T20:51:37.057Z,101447.41
2018-11-27T20:54:05.800Z,101450.70
2018-11-27T20:56:41.937Z,101446.38
2018-11-27T20:59:09.700Z,101451.58
2018-11-27T21:01:38.440Z,101440.86
2018-11-27T21:04:07.032Z,101444.88
2018-11-27T21:06:35.809Z,101440.06
2018-11-27T21:09:04.771Z,101435.86
2018-11-27T21:11:33.297Z,101446.92
2018-11-27T21:14:01.833Z,101448.78
2018-11-27T21:17:33.884Z,101453.31
2018-11-27T21:20:02.485Z,101456.25
2018-11-27T21:22:31.207Z,101450.47
2018-11-27T21:24:59.820Z,101458.36
2018-11-27T21:27:28.324Z,101450.98
2018-11-27T21:29:56.875Z,101450.78
2018-11-27T21:32:25.458Z,101456.56
2018-11-27T21:34:54.256Z,101453.92
2018-11-27T21:37:22.803Z,101457.28
2018-11-27T21:39:52.076Z,101458.85
2018-11-27T21:42:20.660Z,101460.44
2018-11-27T21:44:49.188Z,101456.13
2018-11-27T21:47:17.808Z,101448.98
2018-11-27T21:49:47.072Z,101441.53
2018-11-27T21:52:15.583Z,101444.17
2018-11-27T21:54:45.032Z,101449.77
2018-11-27T21:57:13.613Z,101453.11
2018-11-27T21:59:42.161Z,101439.52
2018-11-27T22:02:10.776Z,101437.33
2018-11-27T22:04:39.586Z,101432.62
2018-11-27T22:07:09.131Z,101433.30
2018-11-27T22:09:37.713Z,101437.03
2018-11-27T22:12:06.421Z,101418.98
2018-11-27T22:14:34.940Z,101424.88
2018-11-27T22:17:03.846Z,101428.61
2018-11-27T22:19:32.397Z,101424.32
2018-11-27T22:22:00.908Z,101425.16
2018-11-27T22:24:29.581Z,101423.70
2018-11-27T22:26:58.076Z,101435.44
2018-11-27T22:29:26.633Z,101430.11
2018-11-27T22:31:55.843Z,101436.95
2018-11-27T22:34:24.458Z,101439.34
2018-11-27T22:36:53.910Z,101431.76
2018-11-27T22:39:23.144Z,101432.33
2018-11-27T22:41:51.716Z,101433.17
2018-11-27T22:44:20.257Z,101433.64
2018-11-27T22:46:48.820Z,101446.59
2018-11-27T22:49:17.496Z,101436.41
2018-11-27T22:51:46.130Z,101438.38
2018-11-27T22:54:15.081Z,101432.53
2018-11-27T22:56:43.689Z,101429.48
2018-11-27T22:59:12.268Z,101424.76
2018-11-27T23:01:40.942Z,101416.69
2018-11-27T23:04:10.064Z,101416.80
2018-11-27T23:06:38.706Z,101421.72
2018-11-27T23:09:09.084Z,101417.08
2018-11-27T23:11:37.628Z,101418.39
2018-11-27T23:14:07.423Z,101417.00
2018-11-27T23:16:35.928Z,101426.37
2018-11-27T23:19:04.453Z,101427.11
2018-11-27T23:21:33.078Z,101425.52
2018-11-27T23:24:02.208Z,101416.80
2018-11-27T23:26:30.778Z,101415.25
2018-11-27T23:28:59.821Z,101418.59
2018-11-27T23:31:28.381Z,101412.45
2018-11-27T23:33:56.961Z,101412.66
2018-11-27T23:36:25.532Z,101412.02
2018-11-27T23:38:54.489Z,101404.53
2018-11-27T23:41:22.977Z,101400.44
2018-11-27T23:43:52.643Z,101387.68
2018-11-27T23:46:21.200Z,101395.82
2018-11-27T23:48:49.817Z,101399.55
2018-11-27T23:51:18.415Z,101397.06
2018-11-27T23:53:47.737Z,101393.98
2018-11-27T23:56:16.266Z,101384.16
2018-11-27T23:58:44.934Z,101377.89
